Time;durP1;ratioP1;P1;durP2;ratioP2;P2;SDS_P1;SDS_P2;PMS_P1;PMS_P2;Temp;Humidity;BMP_temperature;BMP_pressure;BME280_temperature;BME280_humidity;BME280_pressure;Samples;Min_cycle;Max_cycle;Signal;HPM_P1;HPM_P2
2021/12/17 00:04:37;;;;;;;397.00;223.33;;;;;;;;;;5091851;28;20032;-73
2021/12/17 00:07:04;;;;;;;420.27;231.10;;;;;;;;;;5103430;28;20063;-71
2021/12/17 00:09:31;;;;;;;411.53;222.93;;;;;;;;;;5114213;28;20029;-70
2021/12/17 00:11:57;;;;;;;428.97;236.67;;;;;;;;;;5114135;28;20028;-71
2021/12/17 00:14:29;;;;;;;431.37;233.97;;;;;;;;;;5109982;28;20019;-71
2021/12/17 00:16:58;;;;;;;417.43;226.60;;;;;;;;;;5113520;28;20032;-72
2021/12/17 00:19:53;;;;;;;411.17;227.40;;;;;;;;;;5107977;28;20476;-71
2021/12/17 00:52:35;;;;;;;309.37;161.13;;;;;;;;;;5113626;28;20039;-71
2021/12/17 00:55:01;;;;;;;283.90;149.53;;;;;;;;;;5113224;28;20028;-70
2021/12/17 00:57:35;;;;;;;304.87;154.43;;;;;;;;;;5102320;28;20465;-71
2021/12/17 01:00:01;;;;;;;290.03;148.93;;;;;;;;;;5112688;28;20061;-71
2021/12/17 01:02:29;;;;;;;316.53;160.03;;;;;;;;;;5112916;28;20031;-70
2021/12/17 01:04:57;;;;;;;307.73;157.00;;;;;;;;;;5112414;28;20124;-73
2021/12/17 01:07:25;;;;;;;301.73;155.87;;;;;;;;;;5103087;28;20031;-72
2021/12/17 01:09:52;;;;;;;285.97;153.30;;;;;;;;;;5110980;28;20030;-70
2021/12/17 01:12:19;;;;;;;293.47;151.87;;;;;;;;;;5106907;28;20027;-70
2021/12/17 01:14:46;;;;;;;279.73;143.03;;;;;;;;;;5111680;28;20039;-72
2021/12/17 01:17:13;;;;;;;270.53;138.87;;;;;;;;;;5111741;28;20126;-72
2021/12/17 01:25:18;;;;;;;195.20;99.80;;;;;;;;;;5109885;28;20085;-72
2021/12/17 01:35:59;;;;;;;199.07;100.40;;;;;;;;;;5102574;28;20046;-72
2021/12/17 01:41:35;;;;;;;190.60;93.97;;;;;;;;;;5110831;28;20385;-73
2021/12/17 01:43:59;;;;;;;155.10;78.57;;;;;;;;;;5104459;28;20058;-71
2021/12/17 01:46:27;;;;;;;154.47;78.40;;;;;;;;;;5104350;28;20023;-71
2021/12/17 01:59:55;;;;;;;138.53;72.33;;;;;;;;;;5111610;28;20058;-71
2021/12/17 02:02:22;;;;;;;130.07;69.33;;;;;;;;;;5109769;28;20035;-71
2021/12/17 02:04:48;;;;;;;126.57;66.00;;;;;;;;;;5110130;28;20051;-71
2021/12/17 02:07:15;;;;;;;131.07;66.33;;;;;;;;;;5108370;28;20064;-71
2021/12/17 02:31:36;;;;;;;244.50;120.33;;;;;;;;;;5087019;28;20409;-71
2021/12/17 02:36:53;;;;;;;254.10;123.70;;;;;;;;;;5110165;28;20064;-70
2021/12/17 02:47:19;;;;;;;292.83;154.47;;;;;;;;;;5112618;28;20054;-72
2021/12/17 02:49:47;;;;;;;317.17;161.40;;;;;;;;;;5099078;28;20159;-72
2021/12/17 02:52:14;;;;;;;317.87;174.53;;;;;;;;;;5108055;28;20027;-73
2021/12/17 02:54:40;;;;;;;357.07;187.63;;;;;;;;;;5107115;28;20068;-72
2021/12/17 02:57:07;;;;;;;372.77;211.30;;;;;;;;;;5111821;28;20035;-72
2021/12/17 02:59:34;;;;;;;399.73;219.70;;;;;;;;;;5108975;27;20023;-72
2021/12/17 03:02:02;;;;;;;433.67;234.60;;;;;;;;;;5096856;28;20035;-72
2021/12/17 03:04:30;;;;;;;473.63;265.27;;;;;;;;;;5108974;28;20024;-72
2021/12/17 03:06:56;;;;;;;503.07;276.70;;;;;;;;;;5107821;28;20024;-73
2021/12/17 03:09:36;;;;;;;459.23;259.73;;;;;;;;;;5105520;28;20138;-73
2021/12/17 03:12:09;;;;;;;456.43;261.70;;;;;;;;;;5106802;28;20461;-71
2021/12/17 03:14:45;;;;;;;471.03;266.67;;;;;;;;;;5106620;28;20023;-72
2021/12/17 03:17:19;;;;;;;437.40;249.70;;;;;;;;;;5102702;28;20032;-72
2021/12/17 03:25:17;;;;;;;470.47;265.67;;;;;;;;;;5103308;27;20097;-72
2021/12/17 03:27:43;;;;;;;480.67;269.13;;;;;;;;;;5100849;28;20035;-74
2021/12/17 03:30:10;;;;;;;476.37;273.60;;;;;;;;;;5102046;28;20041;-71
2021/12/17 03:32:36;;;;;;;475.40;272.90;;;;;;;;;;5097834;28;20043;-70
2021/12/17 03:35:03;;;;;;;482.23;267.10;;;;;;;;;;5099376;28;20050;-71
2021/12/17 03:37:29;;;;;;;421.50;247.87;;;;;;;;;;5103306;28;20059;-72
2021/12/17 03:39:55;;;;;;;414.63;248.80;;;;;;;;;;5098006;28;20461;-72
2021/12/17 03:42:22;;;;;;;341.97;190.03;;;;;;;;;;5097955;28;20048;-71
2021/12/17 03:44:49;;;;;;;365.30;193.67;;;;;;;;;;5096963;28;20074;-72
2021/12/17 03:47:15;;;;;;;366.43;198.77;;;;;;;;;;5099366;28;20036;-72
2021/12/17 03:49:43;;;;;;;351.97;197.83;;;;;;;;;;5104233;28;20032;-72
2021/12/17 03:52:09;;;;;;;359.80;186.83;;;;;;;;;;5102855;28;20038;-71
2021/12/17 03:54:36;;;;;;;339.37;179.60;;;;;;;;;;5101499;28;20050;-71
2021/12/17 03:57:05;;;;;;;331.13;161.80;;;;;;;;;;5097285;28;20031;-72
2021/12/17 03:59:33;;;;;;;308.83;153.37;;;;;;;;;;5102323;28;20374;-72
2021/12/17 04:02:00;;;;;;;323.87;158.80;;;;;;;;;;5101252;28;20122;-71
2021/12/17 04:04:26;;;;;;;294.13;150.90;;;;;;;;;;5098256;28;20042;-72
2021/12/17 04:06:52;;;;;;;306.02;154.23;;;;;;;;;;5096777;28;20028;-72
2021/12/17 04:09:21;;;;;;;261.25;140.30;;;;;;;;;;5100674;28;20059;-73
2021/12/17 04:11:48;;;;;;;281.67;150.75;;;;;;;;;;5104467;28;20061;-71
2021/12/17 04:14:14;;;;;;;274.00;148.50;;;;;;;;;;5104880;27;20385;-71
2021/12/17 04:16:41;;;;;;;296.92;153.80;;;;;;;;;;5108323;28;20035;-71
2021/12/17 04:19:07;;;;;;;271.13;150.02;;;;;;;;;;5107785;28;20064;-70
2021/12/17 04:21:33;;;;;;;275.05;148.52;;;;;;;;;;5105673;28;20362;-71
2021/12/17 04:24:00;;;;;;;264.20;140.02;;;;;;;;;;5101993;28;20485;-71
2021/12/17 04:26:26;;;;;;;258.17;144.43;;;;;;;;;;5101388;28;20023;-72
2021/12/17 04:28:54;;;;;;;233.02;131.15;;;;;;;;;;5101882;28;20032;-71
2021/12/17 04:31:23;;;;;;;230.48;130.73;;;;;;;;;;5102036;28;20057;-71
2021/12/17 04:33:49;;;;;;;207.90;114.60;;;;;;;;;;5099984;28;20053;-72
2021/12/17 04:36:22;;;;;;;169.70;94.43;;;;;;;;;;5099530;28;20434;-72
2021/12/17 04:38:49;;;;;;;173.98;98.80;;;;;;;;;;5099803;28;20039;-71
2021/12/17 04:42:06;;;;;;;160.07;91.32;;;;;;;;;;5100114;28;20400;-72
2021/12/17 04:57:22;;;;;;;108.97;62.05;;;;;;;;;;5100374;28;20496;-72
2021/12/17 04:59:49;;;;;;;104.70;59.30;;;;;;;;;;5097728;28;20031;-72
2021/12/17 05:02:17;;;;;;;98.10;55.85;;;;;;;;;;5090006;28;20479;-72
2021/12/17 05:04:44;;;;;;;94.32;54.50;;;;;;;;;;5098792;28;20016;-71
2021/12/17 05:07:13;;;;;;;101.88;57.55;;;;;;;;;;5102125;28;20070;-71
2021/12/17 05:20:34;;;;;;;112.25;65.60;;;;;;;;;;5096831;28;20542;-72
2021/12/17 05:23:01;;;;;;;119.13;64.50;;;;;;;;;;5097348;28;20040;-72
2021/12/17 05:25:29;;;;;;;106.25;60.10;;;;;;;;;;5099110;28;20061;-72
2021/12/17 05:28:00;;;;;;;113.45;61.65;;;;;;;;;;5102157;28;20031;-72
2021/12/17 05:30:29;;;;;;;90.90;48.40;;;;;;;;;;5099561;28;20038;-72
2021/12/17 05:32:56;;;;;;;90.55;46.97;;;;;;;;;;5093011;28;20082;-73
2021/12/17 05:35:23;;;;;;;90.80;45.83;;;;;;;;;;5099205;28;20031;-72
2021/12/17 05:37:49;;;;;;;67.45;32.72;;;;;;;;;;5097605;28;20811;-71
2021/12/17 05:40:16;;;;;;;47.15;20.35;;;;;;;;;;5101639;28;20035;-72
2021/12/17 05:42:43;;;;;;;34.92;16.67;;;;;;;;;;5097387;28;20529;-72
2021/12/17 05:45:22;;;;;;;35.72;15.00;;;;;;;;;;5099757;28;20043;-72
2021/12/17 05:47:49;;;;;;;38.72;14.32;;;;;;;;;;5092404;28;20053;-72
2021/12/17 05:50:16;;;;;;;42.22;15.02;;;;;;;;;;5105889;28;20488;-72
2021/12/17 05:52:43;;;;;;;44.47;13.32;;;;;;;;;;5105353;28;20105;-71
2021/12/17 05:55:09;;;;;;;40.92;12.75;;;;;;;;;;5104349;28;20104;-71
2021/12/17 05:57:36;;;;;;;30.52;10.27;;;;;;;;;;5102547;28;20043;-73
2021/12/17 06:00:03;;;;;;;26.38;10.30;;;;;;;;;;5105723;28;20030;-72
2021/12/17 06:02:29;;;;;;;24.80;9.02;;;;;;;;;;5101945;28;20019;-73
2021/12/17 06:04:55;;;;;;;32.08;10.48;;;;;;;;;;5103664;28;20034;-71
2021/12/17 06:07:26;;;;;;;23.88;9.50;;;;;;;;;;5105882;28;20031;-72
2021/12/17 06:09:52;;;;;;;24.48;10.00;;;;;;;;;;5105524;28;20050;-73
2021/12/17 06:12:19;;;;;;;18.60;7.50;;;;;;;;;;5101315;28;20639;-73
2021/12/17 06:14:45;;;;;;;15.15;6.80;;;;;;;;;;5099609;28;20028;-72
2021/12/17 06:17:12;;;;;;;25.63;12.80;;;;;;;;;;5105623;28;20484;-72
2021/12/17 06:19:38;;;;;;;55.58;33.65;;;;;;;;;;5107019;28;20039;-73
2021/12/17 06:22:04;;;;;;;59.95;36.28;;;;;;;;;;5102945;28;20031;-73
2021/12/17 06:24:31;;;;;;;132.10;82.15;;;;;;;;;;5106207;28;20471;-72
2021/12/17 06:26:57;;;;;;;145.75;91.57;;;;;;;;;;5102684;28;20024;-71
2021/12/17 06:29:24;;;;;;;150.30;92.68;;;;;;;;;;5106810;28;20031;-72
2021/12/17 06:31:50;;;;;;;145.38;90.28;;;;;;;;;;5104556;28;20023;-72
2021/12/17 06:34:17;;;;;;;139.95;90.00;;;;;;;;;;5103614;28;20039;-72
2021/12/17 06:36:43;;;;;;;126.22;77.93;;;;;;;;;;5098730;28;20031;-71
2021/12/17 06:39:09;;;;;;;123.07;76.38;;;;;;;;;;5104522;28;20027;-72
2021/12/17 06:41:37;;;;;;;99.43;61.47;;;;;;;;;;5106467;28;20098;-72
2021/12/17 06:44:06;;;;;;;87.75;54.85;;;;;;;;;;5108550;28;20043;-73
2021/12/17 06:46:51;;;;;;;121.90;76.30;;;;;;;;;;5102548;28;20024;-72
2021/12/17 06:49:31;;;;;;;112.80;70.25;;;;;;;;;;5099768;28;20031;-72
2021/12/17 07:00:13;;;;;;;103.35;65.10;;;;;;;;;;5101105;28;20023;-72
2021/12/17 07:10:58;;;;;;;157.20;99.18;;;;;;;;;;5099734;28;20057;-72
2021/12/17 07:35:13;;;;;;;205.88;131.93;;;;;;;;;;5100851;28;20397;-73
2021/12/17 07:40:08;;;;;;;197.23;128.25;;;;;;;;;;5099678;28;20119;-72
2021/12/17 07:42:35;;;;;;;203.20;127.93;;;;;;;;;;5099584;28;20040;-72
2021/12/17 07:45:01;;;;;;;208.52;129.10;;;;;;;;;;5099650;28;20027;-72
2021/12/17 07:47:28;;;;;;;210.82;135.38;;;;;;;;;;5100451;28;20273;-72
2021/12/17 07:49:54;;;;;;;217.77;140.52;;;;;;;;;;5101573;28;20036;-72
2021/12/17 07:52:21;;;;;;;229.02;148.98;;;;;;;;;;5101212;28;20039;-71
2021/12/17 07:54:48;;;;;;;233.80;147.88;;;;;;;;;;5091425;28;20460;-74
2021/12/17 07:57:14;;;;;;;254.70;162.35;;;;;;;;;;5100340;28;20345;-71
2021/12/17 07:59:41;;;;;;;258.40;157.63;;;;;;;;;;5095211;28;20032;-72
2021/12/17 08:02:08;;;;;;;254.90;162.68;;;;;;;;;;5099221;28;20028;-72
2021/12/17 08:04:34;;;;;;;263.02;167.07;;;;;;;;;;5101665;28;20024;-72
2021/12/17 08:07:00;;;;;;;254.50;162.68;;;;;;;;;;5105598;28;20060;-71
2021/12/17 08:09:28;;;;;;;259.80;169.00;;;;;;;;;;5101485;27;20023;-73
2021/12/17 08:11:57;;;;;;;258.08;166.60;;;;;;;;;;5102943;28;20491;-72
2021/12/17 08:14:25;;;;;;;246.05;159.60;;;;;;;;;;5104036;27;20074;-73
2021/12/17 08:24:52;;;;;;;243.70;154.48;;;;;;;;;;5096542;27;20039;-73
2021/12/17 08:32:39;;;;;;;223.02;139.45;;;;;;;;;;5102542;28;20367;-72
2021/12/17 08:35:06;;;;;;;216.07;140.57;;;;;;;;;;5097736;28;20358;-71
2021/12/17 08:37:32;;;;;;;219.98;135.73;;;;;;;;;;5100727;28;20034;-71
2021/12/17 08:39:59;;;;;;;214.75;135.57;;;;;;;;;;5102235;28;20085;-73
2021/12/17 08:42:26;;;;;;;206.38;131.95;;;;;;;;;;5097956;28;20444;-71
2021/12/17 08:44:53;;;;;;;211.32;128.82;;;;;;;;;;5097983;28;20084;-73
2021/12/17 08:47:19;;;;;;;196.75;127.60;;;;;;;;;;5101747;28;20035;-72
2021/12/17 08:49:46;;;;;;;212.13;132.18;;;;;;;;;;5102938;28;20031;-71
2021/12/17 08:52:13;;;;;;;196.75;126.22;;;;;;;;;;5101967;28;20167;-72
2021/12/17 08:54:40;;;;;;;191.00;120.85;;;;;;;;;;5100399;28;20111;-71
2021/12/17 08:57:07;;;;;;;177.55;116.70;;;;;;;;;;5100522;28;20030;-72
2021/12/17 08:59:33;;;;;;;175.57;111.47;;;;;;;;;;5102317;28;20023;-72
2021/12/17 09:02:00;;;;;;;175.07;111.60;;;;;;;;;;5100851;28;20057;-73
2021/12/17 09:04:27;;;;;;;169.18;108.32;;;;;;;;;;5103885;28;20102;-71
2021/12/17 09:06:57;;;;;;;160.45;105.90;;;;;;;;;;5103239;28;20397;-73
2021/12/17 09:09:24;;;;;;;151.55;97.07;;;;;;;;;;5103558;28;20076;-72
2021/12/17 09:11:51;;;;;;;137.27;84.22;;;;;;;;;;5104216;28;20473;-71
2021/12/17 09:14:20;;;;;;;127.53;80.13;;;;;;;;;;5098373;28;20028;-72
2021/12/17 09:16:51;;;;;;;131.13;85.10;;;;;;;;;;5101793;28;20051;-72
2021/12/17 09:19:18;;;;;;;127.90;78.47;;;;;;;;;;5103978;28;20416;-73
2021/12/17 09:21:44;;;;;;;113.18;68.93;;;;;;;;;;5104273;28;20038;-73
2021/12/17 09:24:11;;;;;;;107.28;61.90;;;;;;;;;;5099950;28;20470;-72
2021/12/17 09:26:38;;;;;;;99.57;60.47;;;;;;;;;;5106469;28;20032;-72
2021/12/17 09:29:04;;;;;;;102.53;62.20;;;;;;;;;;5101481;28;20031;-71
2021/12/17 09:31:34;;;;;;;103.88;61.08;;;;;;;;;;5102317;28;20043;-72
2021/12/17 09:34:00;;;;;;;109.95;65.25;;;;;;;;;;5094592;28;20417;-72
2021/12/17 09:36:26;;;;;;;123.03;73.25;;;;;;;;;;5101055;28;20031;-72
2021/12/17 09:38:53;;;;;;;136.20;80.22;;;;;;;;;;5101984;28;20411;-72
2021/12/17 09:41:24;;;;;;;138.98;84.30;;;;;;;;;;5101519;28;20028;-72
2021/12/17 09:43:50;;;;;;;147.77;87.20;;;;;;;;;;5100518;28;20044;-73
2021/12/17 09:46:17;;;;;;;146.35;90.32;;;;;;;;;;5102694;28;20089;-72
2021/12/17 09:48:45;;;;;;;161.45;91.30;;;;;;;;;;5101947;28;20413;-72
2021/12/17 09:51:11;;;;;;;143.10;86.28;;;;;;;;;;5100603;28;20027;-73
2021/12/17 09:53:38;;;;;;;149.63;84.47;;;;;;;;;;5103833;28;20076;-71
2021/12/17 09:56:05;;;;;;;151.43;86.45;;;;;;;;;;5104788;28;20027;-74
2021/12/17 09:58:31;;;;;;;144.30;83.75;;;;;;;;;;5095886;28;20301;-75
2021/12/17 10:00:58;;;;;;;138.95;84.85;;;;;;;;;;5095988;28;20490;-73
2021/12/17 10:03:25;;;;;;;138.20;86.40;;;;;;;;;;5100209;28;20613;-74
2021/12/17 10:05:52;;;;;;;158.45;89.22;;;;;;;;;;5097112;28;20528;-71
2021/12/17 10:08:19;;;;;;;144.50;86.72;;;;;;;;;;5102120;28;20059;-73
2021/12/17 10:10:50;;;;;;;148.05;86.28;;;;;;;;;;5102786;28;20569;-72
2021/12/17 10:13:24;;;;;;;144.60;85.32;;;;;;;;;;5099689;28;20031;-73
2021/12/17 10:15:53;;;;;;;149.38;84.63;;;;;;;;;;5101143;28;20027;-72
2021/12/17 10:18:30;;;;;;;151.48;84.93;;;;;;;;;;5097274;28;20347;-73
2021/12/17 10:20:58;;;;;;;144.75;84.78;;;;;;;;;;5099447;28;20044;-72
2021/12/17 10:23:26;;;;;;;136.98;83.25;;;;;;;;;;5096485;28;20064;-72
2021/12/17 10:25:52;;;;;;;143.57;84.50;;;;;;;;;;5091947;28;20066;-72
2021/12/17 10:28:19;;;;;;;146.18;85.45;;;;;;;;;;5099927;28;20027;-74
2021/12/17 10:30:47;;;;;;;153.18;87.53;;;;;;;;;;5101814;28;20642;-73
2021/12/17 10:33:15;;;;;;;148.30;89.00;;;;;;;;;;5105672;28;20031;-74
2021/12/17 10:35:45;;;;;;;150.25;89.05;;;;;;;;;;5104580;28;20036;-73
2021/12/17 10:38:14;;;;;;;150.05;89.85;;;;;;;;;;5100788;28;20146;-73
2021/12/17 10:40:46;;;;;;;161.38;91.88;;;;;;;;;;5103326;27;20030;-71
2021/12/17 10:46:04;;;;;;;160.18;94.30;;;;;;;;;;5103090;28;20030;-73
2021/12/17 10:48:34;;;;;;;167.98;96.05;;;;;;;;;;5104463;28;20408;-72
2021/12/17 10:51:29;;;;;;;158.95;94.05;;;;;;;;;;5101686;28;20024;-72
2021/12/17 10:53:57;;;;;;;170.50;95.45;;;;;;;;;;5095930;28;20048;-72
2021/12/17 10:56:24;;;;;;;167.35;97.35;;;;;;;;;;5105421;28;20031;-72
2021/12/17 10:58:59;;;;;;;186.52;101.90;;;;;;;;;;5106281;28;20044;-73
2021/12/17 11:01:43;;;;;;;176.27;100.20;;;;;;;;;;5104525;28;20024;-72
2021/12/17 11:04:24;;;;;;;175.60;101.93;;;;;;;;;;5106203;28;20463;-72
2021/12/17 11:06:54;;;;;;;182.13;101.43;;;;;;;;;;5107024;28;20354;-72
2021/12/17 11:09:38;;;;;;;181.50;103.45;;;;;;;;;;5102967;28;20036;-72
2021/12/17 11:12:25;;;;;;;195.95;103.57;;;;;;;;;;5099417;28;20052;-73
2021/12/17 11:14:52;;;;;;;177.18;103.18;;;;;;;;;;5098758;28;20575;-71
2021/12/17 11:17:21;;;;;;;187.18;106.40;;;;;;;;;;5098110;28;20031;-73
2021/12/17 11:19:47;;;;;;;186.98;105.03;;;;;;;;;;5101285;28;20201;-73
2021/12/17 11:22:14;;;;;;;190.85;105.35;;;;;;;;;;5104854;28;20385;-73
2021/12/17 11:24:40;;;;;;;188.55;104.82;;;;;;;;;;5096990;28;20028;-72
2021/12/17 11:27:07;;;;;;;195.93;112.22;;;;;;;;;;5102844;28;20035;-71
2021/12/17 11:29:34;;;;;;;192.55;114.00;;;;;;;;;;5103602;28;20081;-72
2021/12/17 11:32:01;;;;;;;199.23;114.75;;;;;;;;;;5095774;28;20055;-72
2021/12/17 11:34:30;;;;;;;196.30;116.25;;;;;;;;;;5098994;28;20032;-72
2021/12/17 11:36:56;;;;;;;222.95;120.53;;;;;;;;;;5099878;28;20032;-72
2021/12/17 11:39:29;;;;;;;209.25;121.70;;;;;;;;;;5098757;28;20460;-73
2021/12/17 11:42:24;;;;;;;225.35;126.38;;;;;;;;;;5098478;28;20030;-71
2021/12/17 11:45:23;;;;;;;253.85;139.73;;;;;;;;;;5100769;28;20055;-72
2021/12/17 11:47:38;;;;;;;241.45;134.50;;;;;;;;;;5098301;28;20043;-72
2021/12/17 11:50:05;;;;;;;249.77;136.05;;;;;;;;;;5104101;28;20153;-73
2021/12/17 11:52:52;;;;;;;263.92;141.40;;;;;;;;;;5103585;28;20386;-72
2021/12/17 11:55:21;;;;;;;270.85;153.50;;;;;;;;;;5105235;28;20063;-73
2021/12/17 11:57:48;;;;;;;272.05;155.68;;;;;;;;;;5101896;28;20031;-73
2021/12/17 12:00:15;;;;;;;339.92;192.75;;;;;;;;;;5103096;28;20028;-72
2021/12/17 12:02:47;;;;;;;339.27;203.13;;;;;;;;;;5104576;28;20028;-73
2021/12/17 12:05:33;;;;;;;368.30;218.50;;;;;;;;;;5102624;28;20547;-72
2021/12/17 15:31:18;;;;;;;205.70;118.28;;;;;;;;;;5124892;27;20514;-81
2021/12/17 15:33:45;;;;;;;199.00;112.50;;;;;;;;;;5103792;28;20036;-80
2021/12/17 15:36:11;;;;;;;200.73;112.15;;;;;;;;;;5111095;28;20023;-80
2021/12/17 15:38:37;;;;;;;187.10;104.70;;;;;;;;;;5104810;27;20049;-81
2021/12/17 15:41:04;;;;;;;197.48;104.97;;;;;;;;;;5103051;28;20390;-81
2021/12/17 15:43:30;;;;;;;186.50;99.88;;;;;;;;;;5104128;28;20020;-81
2021/12/17 15:45:57;;;;;;;182.27;98.47;;;;;;;;;;5097407;28;20067;-80
2021/12/17 15:48:24;;;;;;;186.48;100.70;;;;;;;;;;5096857;28;20100;-80
2021/12/17 15:50:50;;;;;;;182.20;101.82;;;;;;;;;;5107790;28;20027;-81
2021/12/17 15:53:17;;;;;;;200.20;103.35;;;;;;;;;;5106728;28;20054;-79
2021/12/17 15:55:44;;;;;;;204.88;106.05;;;;;;;;;;5112320;28;20473;-79
2021/12/17 16:18:50;;;;;;;202.15;116.07;;;;;;;;;;5034343;28;20040;-80
2021/12/17 16:21:17;;;;;;;216.50;115.63;;;;;;;;;;5047351;28;20086;-82
2021/12/17 16:23:45;;;;;;;222.27;119.50;;;;;;;;;;5048953;28;20029;-81
2021/12/17 16:26:13;;;;;;;227.15;118.13;;;;;;;;;;5048076;28;20372;-80
2021/12/17 16:28:44;;;;;;;216.68;117.88;;;;;;;;;;5038963;28;20472;-80
2021/12/17 16:31:12;;;;;;;223.80;118.15;;;;;;;;;;5049301;28;20394;-80
2021/12/17 16:33:40;;;;;;;220.07;116.40;;;;;;;;;;5033026;28;20495;-80
2021/12/17 16:36:07;;;;;;;211.48;113.03;;;;;;;;;;5053474;28;20028;-80
2021/12/17 16:38:34;;;;;;;202.32;109.55;;;;;;;;;;5048371;28;20029;-81
2021/12/17 16:41:01;;;;;;;190.32;97.22;;;;;;;;;;5046668;28;20025;-80
2021/12/17 16:43:28;;;;;;;194.48;99.35;;;;;;;;;;5048420;28;20060;-81
2021/12/17 16:46:10;;;;;;;187.75;95.93;;;;;;;;;;5045478;28;20033;-80
2021/12/17 16:48:41;;;;;;;163.10;88.55;;;;;;;;;;5023269;28;20402;-79
2021/12/17 16:51:07;;;;;;;170.13;89.03;;;;;;;;;;5045227;28;20060;-81
2021/12/17 16:53:33;;;;;;;146.15;74.97;;;;;;;;;;5047850;28;20065;-80
2021/12/17 16:56:00;;;;;;;135.95;67.35;;;;;;;;;;5042885;28;20025;-81
2021/12/17 16:58:26;;;;;;;110.97;60.83;;;;;;;;;;5036281;28;20033;-80
2021/12/17 17:00:55;;;;;;;120.93;62.65;;;;;;;;;;5040318;28;20029;-80
2021/12/17 17:03:22;;;;;;;103.97;55.45;;;;;;;;;;5045675;28;20424;-81
2021/12/17 17:05:48;;;;;;;107.50;56.53;;;;;;;;;;5045284;28;20253;-80
2021/12/17 17:08:15;;;;;;;85.70;45.85;;;;;;;;;;5041285;28;20042;-81
2021/12/17 17:10:43;;;;;;;92.60;45.53;;;;;;;;;;5039435;28;20425;-81
2021/12/17 17:13:10;;;;;;;83.03;44.93;;;;;;;;;;5041208;28;20021;-82
2021/12/17 17:15:36;;;;;;;97.30;44.53;;;;;;;;;;5033938;28;20046;-81
2021/12/17 17:18:04;;;;;;;80.45;41.47;;;;;;;;;;5031064;28;20021;-80
2021/12/17 17:20:31;;;;;;;81.30;41.00;;;;;;;;;;5012952;28;20033;-80
2021/12/17 17:22:59;;;;;;;83.28;41.20;;;;;;;;;;5030151;28;20093;-80
2021/12/17 17:25:25;;;;;;;74.35;40.17;;;;;;;;;;5027258;28;20065;-81
2021/12/17 17:27:52;;;;;;;85.90;39.90;;;;;;;;;;5029991;28;20407;-80
2021/12/17 17:30:19;;;;;;;91.93;43.05;;;;;;;;;;5027974;28;20167;-81
2021/12/17 17:32:47;;;;;;;80.10;40.70;;;;;;;;;;5028401;28;20017;-81
2021/12/17 17:35:14;;;;;;;97.10;43.95;;;;;;;;;;5028033;28;20120;-81
2021/12/17 17:37:40;;;;;;;90.65;42.10;;;;;;;;;;5033743;28;20029;-80
2021/12/17 17:40:08;;;;;;;89.65;41.83;;;;;;;;;;5029122;28;20022;-80
2021/12/17 17:42:35;;;;;;;86.63;42.47;;;;;;;;;;5030998;28;20392;-81
2021/12/17 17:45:02;;;;;;;90.55;42.95;;;;;;;;;;5015072;28;20038;-81
2021/12/17 17:47:28;;;;;;;95.65;40.30;;;;;;;;;;5034545;28;20022;-81
2021/12/17 17:49:55;;;;;;;88.57;41.35;;;;;;;;;;5034012;28;20050;-79
2021/12/17 17:52:22;;;;;;;86.57;39.65;;;;;;;;;;5034148;28;20049;-80
2021/12/17 17:54:48;;;;;;;85.72;40.47;;;;;;;;;;5027394;28;20029;-81
2021/12/17 17:57:15;;;;;;;86.38;39.30;;;;;;;;;;5032088;28;20029;-81
2021/12/17 17:59:48;;;;;;;90.88;36.75;;;;;;;;;;5035627;28;20464;-80
2021/12/17 18:02:17;;;;;;;78.22;35.95;;;;;;;;;;5035031;28;20060;-81
2021/12/17 18:04:44;;;;;;;69.32;36.05;;;;;;;;;;5032119;28;20049;-80
2021/12/17 18:07:11;;;;;;;72.95;35.17;;;;;;;;;;5034109;28;20033;-82
2021/12/17 18:09:39;;;;;;;62.28;31.50;;;;;;;;;;5033374;28;20021;-81
2021/12/17 18:12:08;;;;;;;65.80;30.58;;;;;;;;;;5034779;28;20427;-81
2021/12/17 18:14:35;;;;;;;69.05;31.73;;;;;;;;;;5016431;28;20095;-81
2021/12/17 18:17:03;;;;;;;78.32;32.75;;;;;;;;;;5034207;28;20037;-80
2021/12/17 18:19:29;;;;;;;70.38;32.20;;;;;;;;;;5034676;28;20029;-81
2021/12/17 18:21:56;;;;;;;67.55;32.30;;;;;;;;;;5034075;28;20101;-81
2021/12/17 18:24:22;;;;;;;65.85;32.30;;;;;;;;;;5034392;28;20037;-81
2021/12/17 18:26:49;;;;;;;74.93;38.00;;;;;;;;;;5016075;28;20025;-81
2021/12/17 18:29:15;;;;;;;72.32;35.75;;;;;;;;;;5033737;28;20018;-80
2021/12/17 18:31:41;;;;;;;70.65;36.03;;;;;;;;;;5016493;28;20357;-80
2021/12/17 18:34:08;;;;;;;81.38;35.47;;;;;;;;;;5034616;28;20379;-80
2021/12/17 18:36:34;;;;;;;70.78;33.45;;;;;;;;;;5013954;28;20551;-80
2021/12/17 18:39:01;;;;;;;64.90;32.92;;;;;;;;;;5034022;28;20032;-79
2021/12/17 18:41:40;;;;;;;74.57;34.00;;;;;;;;;;5034253;28;20384;-79
2021/12/17 18:44:08;;;;;;;66.53;30.85;;;;;;;;;;5016367;28;20025;-80
2021/12/17 18:46:43;;;;;;;58.28;30.73;;;;;;;;;;5016211;28;20018;-80
2021/12/17 18:49:12;;;;;;;57.08;28.83;;;;;;;;;;5033664;28;20017;-80
2021/12/17 18:51:39;;;;;;;56.75;28.83;;;;;;;;;;5030509;28;20375;-80
2021/12/17 18:54:07;;;;;;;55.08;27.92;;;;;;;;;;5033889;28;20067;-81
2021/12/17 18:56:37;;;;;;;53.45;26.30;;;;;;;;;;5024991;28;20034;-81
2021/12/17 18:59:04;;;;;;;56.95;25.13;;;;;;;;;;5034130;28;20029;-80
2021/12/17 19:01:30;;;;;;;54.10;27.20;;;;;;;;;;5043391;28;20041;-79
2021/12/17 19:03:57;;;;;;;51.97;25.90;;;;;;;;;;5034664;28;20476;-81
2021/12/17 19:06:23;;;;;;;56.17;26.80;;;;;;;;;;5042099;28;20075;-80
2021/12/17 19:08:53;;;;;;;52.15;25.70;;;;;;;;;;5037539;28;20013;-79
2021/12/17 19:11:19;;;;;;;53.28;28.60;;;;;;;;;;5038741;28;20032;-79
2021/12/17 19:13:46;;;;;;;57.83;28.98;;;;;;;;;;5025907;28;20030;-79
2021/12/17 19:16:14;;;;;;;65.05;28.40;;;;;;;;;;5039788;28;20061;-80
2021/12/17 19:21:29;;;;;;;46.45;24.00;;;;;;;;;;5032718;28;20034;-80
2021/12/17 19:23:56;;;;;;;57.60;27.17;;;;;;;;;;5049315;28;20029;-82
2021/12/17 19:26:23;;;;;;;55.65;25.88;;;;;;;;;;5033614;28;20026;-82
2021/12/17 19:28:49;;;;;;;61.58;26.60;;;;;;;;;;5032459;28;20064;-80
2021/12/17 19:31:17;;;;;;;49.45;22.88;;;;;;;;;;5014932;28;20029;-80
2021/12/17 19:33:44;;;;;;;44.22;23.73;;;;;;;;;;5030815;28;20104;-80
2021/12/17 19:36:11;;;;;;;41.92;21.42;;;;;;;;;;5014264;28;20025;-81
2021/12/17 19:38:38;;;;;;;47.15;24.58;;;;;;;;;;5032182;28;20040;-80
2021/12/17 19:41:05;;;;;;;41.55;21.75;;;;;;;;;;5014339;28;20539;-80
2021/12/17 19:43:31;;;;;;;41.50;21.00;;;;;;;;;;5025613;28;20034;-80
2021/12/17 19:46:01;;;;;;;42.40;20.67;;;;;;;;;;5033034;28;20025;-80
2021/12/17 19:48:35;;;;;;;40.35;21.00;;;;;;;;;;5015884;28;20470;-80
2021/12/17 19:51:02;;;;;;;46.65;20.50;;;;;;;;;;5030908;28;20013;-80
2021/12/17 19:53:28;;;;;;;39.03;18.80;;;;;;;;;;5032173;28;20036;-80
2021/12/17 19:55:55;;;;;;;38.70;19.23;;;;;;;;;;5032447;28;20022;-80
2021/12/17 19:58:21;;;;;;;41.25;18.70;;;;;;;;;;5032695;28;20053;-79
2021/12/17 20:00:49;;;;;;;37.53;18.00;;;;;;;;;;5032686;28;20101;-80
2021/12/17 20:03:16;;;;;;;40.78;17.30;;;;;;;;;;5015381;28;20123;-80
2021/12/17 20:05:42;;;;;;;39.97;18.55;;;;;;;;;;5014664;28;20033;-80
2021/12/17 20:08:10;;;;;;;41.03;18.10;;;;;;;;;;5014664;28;20037;-80
2021/12/17 20:10:37;;;;;;;39.08;19.17;;;;;;;;;;5032692;28;20024;-80
2021/12/17 20:13:04;;;;;;;45.20;22.00;;;;;;;;;;5032820;28;20034;-80
2021/12/17 20:15:31;;;;;;;41.00;20.45;;;;;;;;;;5020471;28;20069;-80
2021/12/17 20:17:57;;;;;;;48.35;23.65;;;;;;;;;;5028811;28;20025;-80
2021/12/17 20:20:24;;;;;;;42.40;20.60;;;;;;;;;;5030900;28;20224;-80
2021/12/17 20:22:50;;;;;;;45.28;22.60;;;;;;;;;;5015990;28;20096;-79
2021/12/17 20:25:17;;;;;;;42.50;20.65;;;;;;;;;;5033555;28;20087;-79
2021/12/17 20:27:47;;;;;;;39.78;19.77;;;;;;;;;;4993238;28;20034;-80
2021/12/17 20:30:14;;;;;;;39.10;18.60;;;;;;;;;;5032062;28;20563;-80
2021/12/17 20:32:41;;;;;;;33.08;15.57;;;;;;;;;;5013732;28;20021;-79
2021/12/17 20:35:09;;;;;;;34.08;14.30;;;;;;;;;;5031004;28;20241;-80
2021/12/17 20:37:35;;;;;;;34.15;15.80;;;;;;;;;;5032146;28;20027;-80
2021/12/17 20:40:02;;;;;;;37.33;15.27;;;;;;;;;;5030803;28;20395;-80
2021/12/17 20:45:08;;;;;;;37.97;16.05;;;;;;;;;;5031873;28;20435;-80
2021/12/17 20:47:35;;;;;;;36.67;14.15;;;;;;;;;;5023296;28;20094;-79
2021/12/17 20:50:01;;;;;;;34.95;14.85;;;;;;;;;;5032455;28;20022;-79
2021/12/17 20:52:28;;;;;;;29.55;14.98;;;;;;;;;;5035562;28;20030;-80
2021/12/17 20:54:54;;;;;;;31.63;14.57;;;;;;;;;;5035439;28;20040;-80
2021/12/17 20:57:21;;;;;;;27.85;13.85;;;;;;;;;;5034894;28;20108;-81
2021/12/17 20:59:48;;;;;;;25.63;13.57;;;;;;;;;;5013986;28;20025;-78